createdAt,value
2023-02-14T00:02:42.622Z,15.16
2023-02-14T00:07:39.905Z,15.47
2023-02-14T00:12:39.231Z,15.99
2023-02-14T00:17:39.334Z,16.51
2023-02-14T00:22:37.648Z,16.92
2023-02-14T00:27:37.941Z,17.33
2023-02-14T00:32:38.232Z,17.55
2023-02-14T00:37:35.496Z,17.96
2023-02-14T00:42:36.786Z,18.38
2023-02-14T00:47:35.107Z,19.01
2023-02-14T00:52:34.401Z,19.22
2023-02-14T00:57:32.691Z,19.64
2023-02-14T01:02:32.091Z,19.85
2023-02-14T01:07:34.343Z,20.17
2023-02-14T01:12:30.632Z,20.38
2023-02-14T01:17:29.705Z,20.68
2023-02-14T01:22:29.026Z,20.90
2023-02-14T01:27:28.154Z,21.11
2023-02-14T01:32:26.516Z,21.33
2023-02-14T01:37:26.667Z,21.55
2023-02-14T01:42:25.793Z,21.75
2023-02-14T01:47:25.112Z,21.97
2023-02-14T01:52:24.449Z,22.17
2023-02-14T01:57:23.585Z,22.28
2023-02-14T02:02:24.117Z,22.39
2023-02-14T02:07:22.058Z,22.71
2023-02-14T02:12:21.383Z,22.81
2023-02-14T02:17:22.694Z,22.93
2023-02-14T02:22:20.012Z,23.13
2023-02-14T02:27:19.333Z,23.24
2023-02-14T02:32:19.658Z,23.45
2023-02-14T02:37:17.976Z,23.56
2023-02-14T02:42:19.267Z,23.66
2023-02-14T02:47:16.534Z,23.77
2023-02-14T02:52:15.830Z,23.77
2023-02-14T02:57:15.117Z,23.88
2023-02-14T03:02:14.455Z,23.99
2023-02-14T03:07:13.869Z,24.10
2023-02-14T03:12:15.045Z,24.21
2023-02-14T03:17:12.133Z,24.21
2023-02-14T03:22:12.449Z,24.31
2023-02-14T03:27:10.759Z,24.42
2023-02-14T03:32:10.209Z,24.42
2023-02-14T03:37:10.226Z,24.54
2023-02-14T03:42:09.492Z,24.54
2023-02-14T03:47:07.791Z,24.54
2023-02-14T03:52:07.110Z,24.54
2023-02-14T03:57:06.405Z,24.43
2023-02-14T04:02:05.812Z,24.33
2023-02-14T04:07:05.928Z,24.23
2023-02-14T04:12:04.202Z,24.13
2023-02-14T04:17:03.501Z,24.13
2023-02-14T04:22:02.798Z,24.03
2023-02-14T04:27:02.105Z,24.03
2023-02-14T04:32:02.468Z,24.15
2023-02-14T04:37:00.806Z,24.15
2023-02-14T04:41:59.988Z,24.15
2023-02-14T04:46:59.110Z,24.24
2023-02-14T04:51:59.429Z,24.36
2023-02-14T04:56:57.746Z,24.36
2023-02-14T05:01:57.099Z,24.36
2023-02-14T05:06:56.220Z,24.36
2023-02-14T05:11:56.526Z,24.26
2023-02-14T05:16:53.823Z,23.53
2023-02-14T05:21:54.121Z,23.32
2023-02-14T05:26:53.417Z,23.22
2023-02-14T05:31:54.719Z,23.11
2023-02-14T05:36:52.999Z,23.22
2023-02-14T05:41:51.283Z,23.23
2023-02-14T05:46:51.619Z,23.33
2023-02-14T05:51:52.745Z,23.44
2023-02-14T05:56:49.046Z,23.54
2023-02-14T06:01:48.377Z,23.55
2023-02-14T06:06:47.705Z,23.75
2023-02-14T06:11:47.098Z,23.85
2023-02-14T06:16:47.460Z,23.85
2023-02-14T06:21:46.430Z,23.03
2023-02-14T06:26:45.717Z,22.61
2023-02-14T06:31:45.112Z,22.09
2023-02-14T06:36:44.368Z,21.88
2023-02-14T06:41:44.638Z,21.99
2023-02-14T06:46:43.928Z,21.99
2023-02-14T06:51:41.263Z,21.99
2023-02-14T06:56:41.590Z,22.10
2023-02-14T07:01:39.770Z,22.30
2023-02-14T07:06:39.913Z,22.52
2023-02-14T07:11:38.187Z,22.81
2023-02-14T07:16:37.492Z,23.13
2023-02-14T07:21:37.770Z,23.34
2023-02-14T07:26:36.074Z,23.64
2023-02-14T07:31:35.542Z,23.85
2023-02-14T07:36:35.584Z,24.16
2023-02-14T07:41:33.906Z,23.84
2023-02-14T07:46:33.339Z,22.38
2023-02-14T07:51:33.500Z,21.34
2023-02-14T07:56:31.633Z,20.72
2023-02-14T08:01:30.836Z,20.83
2023-02-14T08:06:32.001Z,21.84
2023-02-14T08:11:30.324Z,19.41
2023-02-14T08:16:30.668Z,18.29
2023-02-14T08:21:27.951Z,17.05
2023-02-14T08:26:27.278Z,15.00
2023-02-14T08:31:35.177Z,14.58
2023-02-14T08:36:26.747Z,15.28
2023-02-14T08:41:25.075Z,14.88
2023-02-14T08:46:25.432Z,14.67
2023-02-14T08:51:23.525Z,14.06
2023-02-14T08:56:23.844Z,13.76
2023-02-14T09:01:22.234Z,13.96
2023-02-14T09:06:21.392Z,14.15
2023-02-14T09:11:21.517Z,14.34
2023-02-14T09:16:20.861Z,14.34
2023-02-14T09:21:19.194Z,14.03
2023-02-14T09:26:17.489Z,13.82
2023-02-14T09:31:18.939Z,13.52
2023-02-14T09:36:19.104Z,14.42
2023-02-14T09:41:16.395Z,14.43
2023-02-14T09:46:15.816Z,14.03
2023-02-14T09:51:14.949Z,14.85
2023-02-14T09:56:15.250Z,15.16
2023-02-14T10:01:12.579Z,16.28
2023-02-14T10:06:13.765Z,16.09
2023-02-14T10:11:13.062Z,15.88
2023-02-14T10:16:11.444Z,18.33
2023-02-14T10:21:10.601Z,17.11
2023-02-14T10:26:09.917Z,17.52
2023-02-14T10:31:09.275Z,17.11
2023-02-14T10:36:08.419Z,17.00
2023-02-14T10:41:06.547Z,17.41
2023-02-14T10:46:06.932Z,15.67
2023-02-14T10:51:07.091Z,15.67
2023-02-14T10:56:06.575Z,15.78
2023-02-14T11:01:05.780Z,16.38
2023-02-14T11:06:04.950Z,16.45
2023-02-14T11:11:04.070Z,15.83
2023-02-14T11:16:03.017Z,16.35
2023-02-14T11:21:01.769Z,17.37
2023-02-14T11:26:01.213Z,16.45
2023-02-14T11:31:00.815Z,17.99
2023-02-14T11:35:59.488Z,16.55
2023-02-14T11:40:59.026Z,17.28
2023-02-14T11:45:57.914Z,18.10
2023-02-14T11:51:00.700Z,17.70
2023-02-14T11:55:56.558Z,17.82
2023-02-14T12:00:55.860Z,18.12
2023-02-14T12:05:56.158Z,17.61
2023-02-14T12:10:54.463Z,18.43
2023-02-14T12:15:53.819Z,16.98
2023-02-14T12:20:52.924Z,17.91
2023-02-14T12:25:53.262Z,17.72
2023-02-14T12:30:51.616Z,19.35
2023-02-14T12:35:51.785Z,19.08
2023-02-14T12:40:50.091Z,19.56
2023-02-14T12:45:51.228Z,19.04
2023-02-14T12:50:48.566Z,18.46
2023-02-14T12:55:48.737Z,15.83
2023-02-14T13:00:46.904Z,15.97
2023-02-14T13:05:47.056Z,15.56
2023-02-14T13:10:45.196Z,15.99
2023-02-14T13:15:44.497Z,17.02
2023-02-14T13:20:43.743Z,18.26
2023-02-14T13:25:43.078Z,17.86
2023-02-14T13:30:46.565Z,15.91
2023-02-14T13:35:41.681Z,16.43
2023-02-14T13:40:41.842Z,16.95
2023-02-14T13:45:42.014Z,17.36
2023-02-14T13:50:39.164Z,18.18
2023-02-14T13:55:39.359Z,19.21
2023-02-14T14:00:37.513Z,18.49
2023-02-14T14:05:37.667Z,19.21
2023-02-14T14:10:36.835Z,17.37
2023-02-14T14:15:35.930Z,16.95
2023-02-14T14:20:34.206Z,17.27
2023-02-14T14:25:34.528Z,19.94
2023-02-14T14:30:33.837Z,19.11
2023-02-14T14:35:32.181Z,20.46
2023-02-14T14:40:31.561Z,20.04
2023-02-14T14:45:31.759Z,20.15
2023-02-14T14:50:29.944Z,20.56
2023-02-14T14:55:30.227Z,20.97
2023-02-14T15:00:29.342Z,19.41
2023-02-14T15:05:27.674Z,18.59
2023-02-14T15:10:27.834Z,18.70
2023-02-14T15:15:26.072Z,16.54
2023-02-14T15:20:26.236Z,17.06
2023-02-14T15:25:24.394Z,18.08
2023-02-14T15:30:25.655Z,17.98
2023-02-14T15:35:23.019Z,18.69
2023-02-14T15:40:22.995Z,18.60
2023-02-14T15:45:21.216Z,18.18
2023-02-14T15:50:20.328Z,18.48
2023-02-14T15:55:19.895Z,18.69
2023-02-14T16:00:19.080Z,18.90
2023-02-14T16:05:18.050Z,19.82
2023-02-14T16:10:17.348Z,19.93
2023-02-14T16:15:15.900Z,20.24
2023-02-14T22:57:38.620Z,19.73
2023-02-14T23:02:38.973Z,19.84
2023-02-14T23:07:38.096Z,19.84
2023-02-14T23:12:35.409Z,21.05
2023-02-14T23:17:34.546Z,22.18
2023-02-14T23:22:33.841Z,19.70
2023-02-14T23:27:33.141Z,18.77
2023-02-14T23:32:33.458Z,18.04
2023-02-14T23:37:32.739Z,17.83
2023-02-14T23:42:32.013Z,17.64
2023-02-14T23:47:30.285Z,17.33
2023-02-14T23:52:29.561Z,18.15
2023-02-14T23:57:29.824Z,19.28
